createdAt,value
2022-12-01T00:01:10.226Z,6.88
2022-12-01T00:03:37.450Z,6.83
2022-12-01T00:06:06.529Z,6.88
2022-12-01T00:08:33.826Z,6.86
2022-12-01T00:11:05.868Z,6.87
2022-12-01T00:13:33.379Z,6.89
2022-12-01T00:16:10.879Z,6.93
2022-12-01T00:18:37.616Z,6.93
2022-12-01T00:21:04.294Z,6.87
2022-12-01T00:23:30.898Z,6.88
2022-12-01T00:26:04.048Z,6.90
2022-12-01T00:28:30.604Z,6.87
2022-12-01T00:30:57.261Z,6.91
2022-12-01T00:33:23.894Z,6.88
2022-12-01T00:35:50.451Z,6.90
2022-12-01T00:38:16.974Z,6.86
2022-12-01T00:40:43.596Z,6.89
2022-12-01T00:43:10.193Z,6.94
2022-12-01T00:45:36.830Z,6.91
2022-12-01T00:48:03.547Z,6.91
2022-12-01T00:50:30.842Z,6.88
2022-12-01T00:52:57.436Z,6.86
2022-12-01T00:55:24.078Z,6.86
2022-12-01T00:57:50.659Z,6.87
2022-12-01T01:00:17.558Z,6.89
2022-12-01T01:02:44.480Z,6.90
2022-12-01T01:05:11.142Z,6.86
2022-12-01T01:07:37.906Z,6.86
2022-12-01T01:10:05.169Z,6.75
2022-12-01T01:12:31.836Z,6.85
2022-12-01T01:14:58.468Z,6.84
2022-12-01T01:17:25.082Z,6.75
2022-12-01T01:19:53.313Z,6.76
2022-12-01T01:22:20.232Z,6.72
2022-12-01T01:24:46.842Z,6.73
2022-12-01T01:27:13.412Z,6.73
2022-12-01T01:29:40.024Z,6.76
2022-12-01T01:32:06.659Z,6.72
2022-12-01T01:34:33.222Z,6.74
2022-12-01T01:36:59.869Z,6.75
2022-12-01T01:39:26.463Z,6.82
2022-12-01T01:41:53.056Z,6.75
2022-12-01T01:44:44.304Z,6.74
2022-12-01T01:47:12.058Z,6.77
2022-12-01T01:49:39.535Z,6.73
2022-12-01T01:52:06.203Z,6.86
2022-12-01T01:54:43.925Z,6.86
2022-12-01T01:57:15.501Z,6.85
2022-12-01T01:59:50.407Z,6.94
2022-12-01T02:02:17.598Z,6.88
2022-12-01T02:04:51.347Z,6.90
2022-12-01T02:07:19.653Z,6.90
2022-12-01T02:09:46.976Z,6.86
2022-12-01T02:12:47.068Z,6.90
2022-12-01T02:15:37.947Z,6.90
2022-12-01T02:18:10.516Z,6.98
2022-12-01T02:21:01.982Z,6.97
2022-12-01T02:24:05.932Z,7.01
2022-12-01T02:26:53.393Z,6.99
2022-12-01T02:29:47.749Z,6.99
2022-12-01T02:32:33.318Z,6.94
2022-12-01T02:35:07.780Z,6.96
2022-12-01T02:37:38.148Z,7.02
2022-12-01T02:40:36.740Z,7.01
2022-12-01T02:43:40.534Z,7.05
2022-12-01T02:46:20.829Z,6.99
2022-12-01T02:48:51.894Z,6.93
2022-12-01T02:51:25.557Z,6.89
2022-12-01T02:53:53.521Z,6.94
2022-12-01T02:56:22.773Z,6.92
2022-12-01T02:58:49.863Z,6.94
2022-12-01T03:01:35.244Z,6.96
2022-12-01T03:04:01.834Z,6.95
2022-12-01T03:06:56.369Z,6.92
2022-12-01T03:09:49.383Z,6.96
2022-12-01T03:12:37.433Z,6.90
2022-12-01T03:15:04.091Z,6.88
2022-12-01T03:17:39.035Z,6.88
2022-12-01T03:20:31.951Z,6.89
2022-12-01T03:23:13.439Z,6.91
2022-12-01T03:25:43.972Z,6.90
2022-12-01T03:28:22.892Z,6.90
2022-12-01T03:30:55.492Z,6.90
2022-12-01T03:33:30.762Z,6.87
2022-12-01T03:36:08.062Z,6.74
2022-12-01T03:38:37.345Z,6.76
2022-12-01T03:41:10.461Z,6.83
2022-12-01T03:43:45.133Z,6.82
2022-12-01T03:46:22.671Z,6.86
2022-12-01T03:48:50.725Z,6.83
2022-12-01T03:51:26.013Z,6.86
2022-12-01T03:54:30.094Z,6.87
2022-12-01T03:57:02.585Z,6.88
2022-12-01T03:59:30.887Z,6.82
2022-12-01T04:01:58.204Z,6.85
2022-12-01T04:04:24.900Z,6.83
2022-12-01T04:06:51.595Z,6.85
2022-12-01T04:09:18.221Z,6.83
2022-12-01T04:12:03.385Z,6.80
2022-12-01T04:14:30.395Z,6.82
2022-12-01T04:16:56.999Z,6.80
2022-12-01T04:19:23.619Z,6.76
2022-12-01T04:21:50.297Z,6.81
2022-12-01T04:24:16.888Z,6.85
2022-12-01T04:26:44.538Z,6.77
2022-12-01T04:29:12.715Z,6.74
2022-12-01T04:31:39.415Z,6.72
2022-12-01T04:34:06.336Z,6.65
2022-12-01T04:36:34.725Z,6.67
2022-12-01T04:39:02.175Z,6.64
2022-12-01T04:41:29.775Z,6.58
2022-12-01T04:43:56.964Z,6.55
2022-12-01T04:46:24.691Z,6.52
2022-12-01T04:48:51.629Z,6.62
2022-12-01T04:51:18.502Z,6.63
2022-12-01T04:53:45.104Z,6.60
2022-12-01T04:56:11.767Z,6.54
2022-12-01T04:58:38.817Z,6.53
2022-12-01T05:01:08.872Z,6.53
2022-12-01T05:03:40.816Z,6.53
2022-12-01T05:06:11.396Z,6.44
2022-12-01T05:08:38.166Z,6.49
2022-12-01T05:11:07.675Z,6.49
2022-12-01T05:13:36.653Z,6.52
2022-12-01T05:16:08.220Z,6.52
2022-12-01T05:18:35.251Z,6.46
2022-12-01T05:21:03.906Z,6.46
2022-12-01T05:23:33.436Z,6.43
2022-12-01T05:26:01.047Z,6.47
2022-12-01T05:28:28.574Z,6.45
2022-12-01T05:30:55.732Z,6.54
2022-12-01T05:33:23.831Z,6.48
2022-12-01T05:35:53.635Z,6.48
2022-12-01T05:38:20.549Z,6.52
2022-12-01T05:40:55.385Z,6.50
2022-12-01T05:43:28.661Z,6.46
2022-12-01T05:45:57.150Z,6.45
2022-12-01T05:48:24.073Z,6.42
2022-12-01T05:50:51.079Z,6.33
2022-12-01T05:53:18.836Z,6.31
2022-12-01T05:55:46.001Z,6.36
2022-12-01T05:58:12.679Z,6.41
2022-12-01T06:00:45.265Z,6.41
2022-12-01T06:03:12.873Z,6.30
2022-12-01T06:05:39.658Z,6.35
2022-12-01T06:08:07.027Z,6.37
2022-12-01T06:10:33.690Z,6.36
2022-12-01T06:13:00.326Z,6.38
2022-12-01T06:15:27.374Z,6.38
2022-12-01T06:17:54.132Z,6.37
2022-12-01T06:20:20.760Z,6.39
2022-12-01T06:22:48.484Z,6.43
2022-12-01T06:25:15.269Z,6.47
2022-12-01T06:27:41.840Z,6.45
2022-12-01T06:30:09.258Z,6.51
2022-12-01T06:32:36.295Z,6.46
2022-12-01T06:35:03.045Z,6.52
2022-12-01T06:37:29.710Z,6.47
2022-12-01T06:39:56.400Z,6.45
2022-12-01T06:42:23.020Z,6.48
2022-12-01T06:44:49.698Z,6.50
2022-12-01T06:47:16.342Z,6.46
2022-12-01T06:49:42.952Z,6.46
2022-12-01T06:52:10.103Z,6.49
2022-12-01T06:54:37.621Z,6.53
2022-12-01T06:57:04.783Z,6.56
2022-12-01T06:59:31.731Z,6.55
2022-12-01T07:01:58.813Z,6.58
2022-12-01T07:04:25.627Z,6.59
2022-12-01T07:06:52.215Z,6.55
2022-12-01T07:09:19.033Z,6.57
2022-12-01T07:11:45.658Z,6.58
2022-12-01T07:14:20.248Z,6.62
2022-12-01T07:16:47.009Z,6.67
2022-12-01T07:19:13.734Z,6.69
2022-12-01T07:21:40.328Z,6.75
2022-12-01T07:24:07.347Z,6.80
2022-12-01T07:26:34.101Z,6.81
2022-12-01T07:29:00.861Z,6.80
2022-12-01T07:31:27.518Z,6.81
2022-12-01T07:33:54.223Z,6.81
2022-12-01T07:36:21.114Z,6.89
2022-12-01T07:38:47.772Z,6.82
2022-12-01T07:41:19.061Z,6.87
2022-12-01T07:43:46.623Z,6.90
2022-12-01T07:46:22.773Z,6.87
2022-12-01T07:48:50.839Z,6.91
2022-12-01T07:51:17.804Z,6.97
2022-12-01T07:53:49.399Z,6.98
2022-12-01T07:56:16.830Z,6.90
2022-12-01T07:58:44.085Z,6.95
2022-12-01T08:01:16.472Z,6.95
2022-12-01T08:03:43.600Z,6.96
2022-12-01T08:06:11.500Z,6.97
2022-12-01T08:08:40.825Z,7.01
2022-12-01T08:11:11.236Z,7.06
2022-12-01T08:13:38.965Z,7.02
2022-12-01T08:16:07.561Z,7.01
2022-12-01T08:18:39.069Z,7.00
2022-12-01T08:21:06.956Z,7.02
2022-12-01T08:23:33.892Z,7.01
2022-12-01T08:26:05.596Z,7.00
2022-12-01T08:28:35.368Z,6.92
2022-12-01T08:31:14.497Z,7.02
2022-12-01T08:33:41.263Z,7.02
2022-12-01T08:36:08.286Z,6.98
2022-12-01T08:38:35.620Z,7.04
2022-12-01T08:41:04.144Z,7.10
2022-12-01T08:46:17.689Z,7.13
2022-12-01T08:48:44.437Z,7.04
2022-12-01T08:51:16.562Z,7.07
2022-12-01T08:53:47.076Z,7.02
2022-12-01T08:56:20.246Z,6.98
2022-12-01T08:58:47.157Z,6.91
2022-12-01T09:01:16.555Z,6.86
2022-12-01T09:03:44.233Z,6.91
2022-12-01T09:06:16.768Z,6.83
2022-12-01T09:08:43.663Z,6.74
2022-12-01T09:11:12.915Z,6.71
2022-12-01T09:13:40.760Z,6.68
2022-12-01T09:16:12.906Z,6.73
2022-12-01T09:18:40.002Z,6.73
2022-12-01T09:21:24.796Z,6.66
2022-12-01T09:23:51.842Z,6.66
2022-12-01T09:26:20.021Z,6.55
2022-12-01T09:28:49.010Z,6.56
2022-12-01T09:31:18.512Z,6.53
2022-12-01T09:33:45.327Z,6.55
2022-12-01T09:36:12.007Z,6.53
2022-12-01T09:38:39.393Z,6.51
2022-12-01T09:41:19.375Z,6.55
2022-12-01T09:43:56.819Z,6.51
2022-12-01T09:46:28.697Z,6.53
2022-12-01T09:48:57.310Z,6.39
2022-12-01T09:51:26.522Z,6.58
2022-12-01T09:53:56.761Z,6.61
2022-12-01T09:56:49.594Z,6.70
2022-12-01T09:59:23.705Z,6.68
2022-12-01T10:02:00.314Z,6.69
2022-12-01T10:04:48.535Z,6.73
2022-12-01T10:07:20.708Z,6.71
2022-12-01T10:10:01.205Z,6.72
2022-12-01T10:12:34.113Z,6.72
2022-12-01T10:15:12.933Z,6.57
2022-12-01T10:18:03.492Z,6.66
2022-12-01T10:20:44.147Z,6.54
2022-12-01T10:23:24.992Z,6.48
2022-12-01T10:25:54.588Z,6.53
2022-12-01T10:28:39.128Z,6.60
2022-12-01T10:31:21.256Z,6.65
2022-12-01T10:34:05.340Z,6.71
2022-12-01T10:36:33.814Z,6.75
2022-12-01T10:39:02.665Z,6.81
2022-12-01T10:41:33.842Z,6.85
2022-12-01T10:44:03.070Z,6.75
2022-12-01T10:46:52.489Z,6.67
2022-12-01T10:49:20.466Z,6.71
2022-12-01T10:51:53.103Z,6.72
2022-12-01T10:54:20.532Z,6.71
2022-12-01T10:56:51.233Z,6.68
2022-12-01T10:59:56.159Z,6.71
2022-12-01T11:02:26.143Z,6.63
2022-12-01T11:04:52.979Z,6.59
2022-12-01T11:07:24.830Z,6.58
2022-12-01T11:10:28.925Z,6.62
2022-12-01T11:13:03.037Z,6.49
2022-12-01T11:15:34.393Z,6.55
2022-12-01T11:18:23.779Z,6.50
2022-12-01T11:21:16.770Z,6.46
2022-12-01T11:23:51.488Z,6.49
2022-12-01T11:26:30.695Z,6.52
2022-12-01T11:29:02.334Z,6.58
2022-12-01T11:31:42.263Z,6.58
2022-12-01T11:34:34.603Z,6.55
2022-12-01T11:37:04.388Z,6.56
2022-12-01T11:39:38.700Z,6.58
2022-12-01T11:42:19.440Z,6.51
2022-12-01T11:44:57.423Z,6.53
2022-12-01T11:47:26.540Z,6.63
2022-12-01T11:49:58.859Z,6.57
2022-12-01T11:52:27.757Z,6.63
2022-12-01T11:54:59.962Z,6.70
2022-12-01T11:57:34.666Z,6.67
2022-12-01T12:00:05.911Z,6.75
2022-12-01T12:02:51.700Z,6.81
2022-12-01T12:05:33.372Z,6.87
2022-12-01T12:08:13.693Z,6.89
2022-12-01T12:11:02.096Z,6.97
2022-12-01T12:13:56.267Z,6.84
2022-12-01T12:16:33.526Z,6.91
2022-12-01T12:19:39.234Z,6.86
2022-12-01T12:22:29.150Z,6.83
2022-12-01T12:25:18.948Z,6.80
2022-12-01T12:28:14.991Z,6.73
2022-12-01T12:31:03.388Z,6.66
2022-12-01T12:34:00.818Z,6.61
2022-12-01T12:36:43.480Z,6.63
2022-12-01T12:39:17.014Z,6.58
2022-12-01T12:41:50.413Z,6.58
2022-12-01T12:44:39.298Z,6.53
2022-12-01T12:47:18.040Z,6.19
2022-12-01T12:50:44.946Z,6.21
2022-12-01T12:53:20.124Z,6.27
2022-12-01T12:55:52.829Z,6.29
2022-12-01T12:58:22.596Z,6.32
2022-12-01T13:01:01.312Z,6.35
2022-12-01T13:03:43.183Z,6.33
2022-12-01T13:06:25.567Z,6.30
2022-12-01T13:09:10.366Z,6.33
2022-12-01T13:11:48.063Z,6.31
2022-12-01T13:14:20.928Z,6.38
2022-12-01T13:16:50.507Z,6.29
2022-12-01T13:19:24.418Z,6.34
2022-12-01T13:21:53.470Z,6.36
2022-12-01T13:24:24.606Z,6.28
2022-12-01T13:27:17.528Z,6.37
2022-12-01T13:29:48.799Z,6.32
2022-12-01T13:32:33.893Z,6.28
2022-12-01T13:35:03.258Z,6.09
2022-12-01T13:37:35.701Z,6.18
2022-12-01T13:40:20.192Z,6.26
2022-12-01T13:43:20.209Z,6.27
2022-12-01T13:45:48.430Z,6.23
2022-12-01T13:48:52.084Z,6.29
2022-12-01T13:51:18.941Z,6.26
2022-12-01T13:54:05.554Z,6.21
2022-12-01T13:56:39.590Z,6.18
2022-12-01T13:59:46.118Z,6.18
2022-12-01T14:02:33.050Z,6.24
2022-12-01T14:05:36.939Z,6.25
2022-12-01T14:08:19.664Z,6.21
2022-12-01T14:11:23.889Z,6.22
2022-12-01T14:13:57.731Z,6.24
2022-12-01T14:16:25.551Z,6.18
2022-12-01T14:18:56.724Z,6.25
2022-12-01T14:22:01.034Z,6.23
2022-12-01T14:24:40.542Z,6.24
2022-12-01T14:27:08.959Z,6.35
2022-12-01T14:29:43.212Z,6.27
2022-12-01T14:32:09.752Z,6.28
2022-12-01T14:34:38.190Z,6.28
2022-12-01T14:37:23.125Z,6.24
2022-12-01T14:39:58.665Z,6.26
2022-12-01T14:42:49.530Z,6.21
2022-12-01T14:45:22.442Z,6.15
2022-12-01T14:48:01.456Z,6.25
2022-12-01T14:50:46.471Z,6.31
2022-12-01T14:53:42.003Z,6.18
2022-12-01T14:56:12.676Z,6.21
2022-12-01T14:58:39.485Z,6.18
2022-12-01T15:01:07.555Z,6.16
2022-12-01T15:03:54.755Z,6.17
2022-12-01T15:06:23.536Z,6.10
2022-12-01T15:12:03.212Z,6.08
2022-12-01T15:14:39.031Z,6.10
2022-12-01T15:17:08.946Z,6.06
2022-12-01T15:19:40.692Z,6.02
2022-12-01T15:22:17.845Z,5.98
2022-12-01T15:24:45.211Z,6.04
2022-12-01T15:27:25.244Z,6.05
2022-12-01T15:29:52.504Z,6.08
2022-12-01T15:32:21.757Z,6.11
2022-12-01T15:34:52.027Z,6.19
2022-12-01T15:37:26.117Z,6.13
2022-12-01T15:40:00.909Z,6.04
2022-12-01T15:42:39.601Z,6.03
2022-12-01T15:45:15.344Z,6.07
2022-12-01T15:47:43.464Z,6.12
2022-12-01T15:50:31.354Z,6.02
2022-12-01T15:53:00.324Z,6.04
2022-12-01T15:55:35.076Z,6.07
2022-12-01T15:58:06.317Z,6.04
2022-12-01T16:00:33.182Z,6.13
2022-12-01T16:03:02.094Z,6.14
2022-12-01T16:05:35.212Z,6.17
2022-12-01T16:08:19.519Z,6.17
2022-12-01T16:10:46.707Z,6.06
2022-12-01T16:13:35.004Z,6.08
2022-12-01T16:16:21.086Z,6.10
2022-12-01T16:19:02.804Z,6.11
2022-12-01T16:21:43.949Z,6.09
2022-12-01T16:24:16.200Z,6.09
2022-12-01T16:26:51.475Z,6.19
2022-12-01T16:29:20.963Z,6.10
2022-12-01T16:32:19.903Z,6.12
2022-12-01T16:34:46.324Z,6.10
2022-12-01T16:37:13.906Z,6.09
2022-12-01T16:39:40.619Z,6.11
2022-12-01T16:42:11.161Z,6.17
2022-12-01T16:44:37.793Z,6.19
2022-12-01T16:47:14.142Z,6.16
2022-12-01T16:49:40.848Z,6.06
2022-12-01T16:52:36.485Z,5.93
2022-12-01T16:54:54.103Z,6.00
2022-12-01T16:57:20.702Z,5.98
2022-12-01T16:59:47.295Z,5.93
2022-12-01T17:02:13.916Z,5.87
2022-12-01T17:04:40.585Z,5.83
2022-12-01T17:07:07.209Z,5.87
2022-12-01T17:09:33.950Z,5.56
2022-12-01T17:12:00.604Z,5.59
2022-12-01T17:14:27.320Z,5.66
2022-12-01T17:16:53.929Z,5.69
2022-12-01T17:19:20.601Z,5.67
2022-12-01T17:21:47.218Z,5.63
2022-12-01T17:24:17.671Z,5.64
2022-12-01T17:26:45.708Z,5.62
2022-12-01T17:29:12.318Z,5.67
2022-12-01T17:31:39.056Z,5.67
2022-12-01T17:34:05.716Z,5.67
2022-12-01T17:36:32.278Z,5.66
2022-12-01T17:38:58.946Z,5.71
2022-12-01T17:41:32.196Z,5.73
2022-12-01T17:44:02.322Z,5.84
2022-12-01T17:46:30.433Z,5.86
2022-12-01T17:48:57.112Z,5.81
2022-12-01T17:51:23.727Z,5.86
2022-12-01T17:53:50.416Z,5.85
2022-12-01T17:56:17.543Z,5.87
2022-12-01T17:58:44.350Z,5.91
2022-12-01T18:01:17.113Z,5.86
2022-12-01T18:03:44.069Z,5.86
2022-12-01T18:06:10.739Z,6.00
2022-12-01T18:08:37.941Z,5.94
2022-12-01T18:11:10.216Z,5.96
2022-12-01T18:13:45.111Z,6.00
2022-12-01T18:16:20.710Z,6.03
2022-12-01T18:18:47.958Z,6.05
2022-12-01T18:21:16.887Z,6.03
2022-12-01T18:23:51.980Z,6.01
2022-12-01T18:26:21.947Z,6.04
2022-12-01T18:28:59.016Z,6.04
2022-12-01T18:31:26.482Z,6.04
2022-12-01T18:33:53.602Z,6.08
2022-12-01T18:36:24.872Z,6.13
2022-12-01T18:38:54.543Z,6.17
2022-12-01T18:41:21.279Z,6.14
2022-12-01T18:43:47.995Z,6.13
2022-12-01T18:46:16.982Z,6.13
2022-12-01T18:48:45.867Z,6.15
2022-12-01T18:51:13.108Z,6.18
2022-12-01T18:53:39.904Z,6.10
2022-12-01T18:56:11.728Z,6.09
2022-12-01T18:58:39.946Z,6.06
2022-12-01T19:01:27.762Z,6.08
2022-12-01T19:03:55.822Z,6.09
2022-12-01T19:06:22.935Z,6.06
2022-12-01T19:08:49.953Z,6.08
2022-12-01T19:11:17.018Z,6.17
2022-12-01T19:13:44.215Z,6.12
2022-12-01T19:16:17.052Z,6.05
2022-12-01T19:18:44.689Z,6.06
2022-12-01T19:21:14.133Z,6.10
2022-12-01T19:23:40.919Z,6.10
2022-12-01T19:26:11.193Z,6.13
2022-12-01T19:28:38.587Z,6.11
2022-12-01T19:31:10.060Z,6.13
2022-12-01T19:33:37.298Z,6.09
2022-12-01T19:36:09.332Z,5.94
2022-12-01T19:38:36.198Z,5.99
2022-12-01T19:41:03.804Z,6.09
2022-12-01T19:43:30.587Z,6.08
2022-12-01T19:45:57.176Z,6.06
2022-12-01T19:48:23.746Z,6.17
2022-12-01T19:50:50.355Z,6.10
2022-12-01T19:53:16.939Z,6.12
2022-12-01T19:55:43.640Z,6.03
2022-12-01T19:58:10.281Z,6.05
2022-12-01T20:00:36.907Z,6.05
2022-12-01T20:03:03.983Z,6.06
2022-12-01T20:05:32.559Z,6.03
2022-12-01T20:07:59.333Z,6.07
2022-12-01T20:10:26.010Z,5.90
2022-12-01T20:12:52.929Z,5.95
2022-12-01T20:15:19.681Z,5.94
2022-12-01T20:17:46.260Z,6.02
2022-12-01T20:20:13.219Z,5.91
2022-12-01T20:22:39.876Z,5.90
2022-12-01T20:25:06.785Z,5.90
2022-12-01T20:27:33.461Z,5.92
2022-12-01T20:30:00.095Z,5.89
2022-12-01T20:32:26.822Z,5.95
2022-12-01T20:34:53.661Z,5.94
2022-12-01T20:37:20.425Z,5.83
2022-12-01T20:39:47.456Z,5.86
2022-12-01T20:42:14.120Z,5.86
2022-12-01T20:44:40.834Z,5.89
2022-12-01T20:47:07.519Z,5.91
2022-12-01T20:49:34.378Z,5.90
2022-12-01T20:52:01.193Z,5.53
2022-12-01T20:54:29.328Z,5.69
2022-12-01T20:56:56.854Z,5.74
2022-12-01T20:59:23.553Z,5.73
2022-12-01T21:01:50.279Z,5.57
2022-12-01T21:04:17.501Z,5.69
2022-12-01T21:06:44.163Z,5.69
2022-12-01T21:09:12.398Z,5.66
2022-12-01T21:12:06.627Z,5.62
2022-12-01T21:14:49.543Z,5.69
2022-12-01T21:17:49.948Z,5.66
2022-12-01T21:20:25.195Z,5.65
2022-12-01T21:22:53.795Z,5.55
2022-12-01T21:25:24.489Z,5.58
2022-12-01T21:27:51.941Z,5.55
2022-12-01T21:30:22.096Z,5.56
2022-12-01T21:32:49.571Z,5.51
2022-12-01T21:35:23.609Z,5.57
2022-12-01T21:37:54.498Z,5.62
2022-12-01T21:40:26.067Z,5.58
2022-12-01T21:42:53.411Z,5.52
2022-12-01T21:45:29.189Z,5.49
2022-12-01T21:48:01.379Z,5.43
2022-12-01T21:50:28.129Z,5.53
2022-12-01T21:52:54.820Z,5.56
2022-12-01T21:55:21.399Z,5.64
2022-12-01T21:57:49.737Z,5.65
2022-12-01T22:00:34.717Z,5.64
2022-12-01T22:03:20.018Z,5.69
2022-12-01T22:06:13.496Z,5.66
2022-12-01T22:08:40.103Z,5.72
2022-12-01T22:11:27.333Z,5.77
2022-12-01T22:14:09.092Z,5.78
2022-12-01T22:16:40.301Z,5.75
2022-12-01T22:19:30.537Z,5.88
2022-12-01T22:22:09.401Z,6.00
2022-12-01T22:24:41.745Z,5.90
2022-12-01T22:27:29.405Z,5.93
2022-12-01T22:30:23.588Z,5.90
2022-12-01T22:32:53.204Z,5.95
2022-12-01T22:35:42.319Z,5.92
2022-12-01T22:38:08.862Z,5.89
2022-12-01T22:40:58.697Z,5.94
2022-12-01T22:43:47.100Z,5.93
2022-12-01T22:46:30.447Z,5.94
2022-12-01T22:49:06.031Z,6.01
2022-12-01T22:52:13.872Z,6.01
2022-12-01T22:54:46.826Z,6.01
2022-12-01T22:57:38.826Z,6.03
2022-12-01T23:00:15.004Z,6.06
2022-12-01T23:02:41.818Z,6.03
2022-12-01T23:05:25.403Z,6.05
2022-12-01T23:07:53.474Z,6.01
2022-12-01T23:10:25.881Z,6.05
2022-12-01T23:12:54.963Z,6.09
2022-12-01T23:15:38.069Z,6.04
2022-12-01T23:18:22.580Z,5.97
2022-12-01T23:20:57.439Z,5.94
2022-12-01T23:23:27.990Z,5.93
2022-12-01T23:25:54.913Z,5.93
2022-12-01T23:28:21.805Z,6.00
2022-12-01T23:30:53.293Z,6.02
2022-12-01T23:33:24.975Z,5.96
2022-12-01T23:36:02.231Z,5.96
2022-12-01T23:38:31.077Z,5.92
2022-12-01T23:41:01.778Z,5.87
2022-12-01T23:43:41.765Z,5.93
2022-12-01T23:46:12.639Z,5.93
2022-12-01T23:49:07.683Z,5.84
2022-12-01T23:51:40.172Z,5.73
2022-12-01T23:54:29.182Z,5.79
2022-12-01T23:56:58.603Z,5.88
2022-12-01T23:59:25.631Z,5.85
